createdAt,value
2023-02-26T00:01:31.959Z,0.75
2023-02-26T00:04:02.528Z,0.77
2023-02-26T00:06:32.825Z,0.82
2023-02-26T00:09:01.113Z,0.85
2023-02-26T00:11:29.461Z,0.82
2023-02-26T00:13:57.555Z,0.80
2023-02-26T00:16:35.956Z,0.80
2023-02-26T00:19:06.806Z,0.83
2023-02-26T00:21:36.304Z,0.85
2023-02-26T00:24:04.459Z,0.93
2023-02-26T00:26:32.818Z,1.06
2023-02-26T00:29:01.256Z,1.17
2023-02-26T00:31:29.279Z,1.20
2023-02-26T00:33:58.698Z,1.20
2023-02-26T00:36:53.259Z,1.17
2023-02-26T00:39:45.555Z,1.17
2023-02-26T00:42:14.327Z,1.17
2023-02-26T00:44:42.476Z,1.17
2023-02-26T00:47:25.416Z,1.20
2023-02-26T00:50:01.820Z,1.16
2023-02-26T00:52:32.838Z,1.14
2023-02-26T00:55:00.642Z,1.13
2023-02-26T00:57:28.322Z,1.11
2023-02-26T00:59:56.040Z,1.09
2023-02-26T01:02:24.077Z,1.08
2023-02-26T01:04:52.114Z,1.07
2023-02-26T01:07:24.973Z,1.08
2023-02-26T01:09:53.046Z,1.06
2023-02-26T01:12:21.481Z,1.07
2023-02-26T01:14:49.520Z,1.03
2023-02-26T01:17:33.105Z,1.05
2023-02-26T01:20:23.583Z,1.05
2023-02-26T01:23:01.542Z,1.06
2023-02-26T01:25:37.838Z,1.00
2023-02-26T01:28:05.712Z,0.92
2023-02-26T01:30:33.762Z,0.87
2023-02-26T01:33:20.615Z,0.88
2023-02-26T01:35:56.660Z,0.91
2023-02-26T01:38:56.350Z,0.90
2023-02-26T01:41:52.018Z,0.91
2023-02-26T01:44:57.233Z,0.87
2023-02-26T01:47:37.266Z,0.87
2023-02-26T01:50:31.067Z,0.84
2023-02-26T01:53:25.097Z,0.86
2023-02-26T01:55:58.717Z,0.83
2023-02-26T01:58:29.573Z,0.85
2023-02-26T02:00:57.340Z,0.86
2023-02-26T02:03:27.582Z,0.94
2023-02-26T02:06:04.724Z,0.94
2023-02-26T02:08:36.803Z,0.99
2023-02-26T02:11:08.061Z,1.03
2023-02-26T02:13:48.052Z,0.98
2023-02-26T02:16:32.966Z,0.93
2023-02-26T02:19:09.035Z,0.95
2023-02-26T02:21:51.497Z,0.91
2023-02-26T02:24:43.284Z,0.89
2023-02-26T02:27:38.624Z,0.86
2023-02-26T02:30:44.294Z,0.85
2023-02-26T02:33:19.015Z,0.76
2023-02-26T02:35:57.163Z,0.69
2023-02-26T02:38:29.395Z,0.64
2023-02-26T02:41:06.457Z,0.57
2023-02-26T02:43:37.864Z,0.58
2023-02-26T02:46:10.021Z,0.53
2023-02-26T02:49:09.967Z,0.53
2023-02-26T02:51:42.806Z,0.53
2023-02-26T02:54:24.018Z,0.48
2023-02-26T02:57:04.577Z,0.47
2023-02-26T03:26:32.349Z,0.30
2023-02-26T03:29:28.900Z,0.22
2023-02-26T03:32:01.854Z,0.17
2023-02-26T03:34:46.994Z,0.10
2023-02-26T03:37:27.863Z,0.01
2023-02-26T03:40:03.345Z,-0.04
2023-02-26T03:42:34.218Z,-0.08
2023-02-26T03:45:16.190Z,-0.11
2023-02-26T03:47:47.242Z,-0.18
2023-02-26T03:50:25.816Z,-0.23
2023-02-26T03:52:55.214Z,-0.28
2023-02-26T03:55:40.272Z,-0.32
2023-02-26T03:58:08.274Z,-0.36
2023-02-26T04:00:40.847Z,-0.39
2023-02-26T04:03:19.844Z,-0.43
2023-02-26T04:05:50.705Z,-0.47
2023-02-26T04:08:18.594Z,-0.48
2023-02-26T04:11:01.590Z,-0.51
2023-02-26T04:13:29.486Z,-0.48
2023-02-26T04:15:57.143Z,-0.47
2023-02-26T04:18:24.966Z,-0.47
2023-02-26T04:20:52.638Z,-0.47
2023-02-26T04:23:20.602Z,-0.54
2023-02-26T04:25:48.438Z,-0.57
2023-02-26T04:28:16.436Z,-0.58
2023-02-26T04:30:44.136Z,-0.62
2023-02-26T04:33:11.853Z,-0.65
2023-02-26T04:35:40.086Z,-0.68
2023-02-26T04:38:07.741Z,-0.71
2023-02-26T04:40:35.372Z,-0.71
2023-02-26T04:43:03.017Z,-0.74
2023-02-26T04:45:30.732Z,-0.79
2023-02-26T04:47:58.357Z,-0.93
2023-02-26T04:50:26.078Z,-1.12
2023-02-26T04:52:53.886Z,-1.25
2023-02-26T04:55:21.709Z,-1.39
2023-02-26T04:57:49.363Z,-1.50
2023-02-26T05:00:18.631Z,-1.59
2023-02-26T05:02:46.285Z,-1.64
2023-02-26T05:05:14.160Z,-1.67
2023-02-26T05:07:41.815Z,-1.72
2023-02-26T05:10:10.288Z,-1.76
2023-02-26T05:12:37.954Z,-1.77
2023-02-26T05:15:07.323Z,-1.80
2023-02-26T05:17:34.948Z,-1.81
2023-02-26T05:20:02.559Z,-1.78
2023-02-26T05:22:30.407Z,-1.84
2023-02-26T05:24:58.087Z,-1.88
2023-02-26T05:27:25.800Z,-1.88
2023-02-26T05:29:53.519Z,-1.92
2023-02-26T05:32:21.202Z,-1.95
2023-02-26T05:34:48.858Z,-1.94
2023-02-26T05:37:16.567Z,-1.94
2023-02-26T05:39:44.261Z,-1.95
2023-02-26T05:42:11.955Z,-1.95
2023-02-26T05:44:39.625Z,-1.93
2023-02-26T05:47:07.332Z,-1.90
2023-02-26T05:49:35.156Z,-1.89
2023-02-26T05:52:03.007Z,-1.89
2023-02-26T05:54:30.937Z,-1.83
2023-02-26T05:56:58.857Z,-1.79
2023-02-26T05:59:26.828Z,-1.76
2023-02-26T06:01:54.648Z,-1.75
2023-02-26T06:04:22.364Z,-1.71
2023-02-26T06:06:50.014Z,-1.70
2023-02-26T06:09:17.929Z,-1.67
2023-02-26T06:11:45.701Z,-1.71
2023-02-26T06:14:13.496Z,-1.68
2023-02-26T06:16:41.279Z,-1.65
2023-02-26T06:19:09.029Z,-1.64
2023-02-26T06:21:36.710Z,-1.62
2023-02-26T06:24:04.552Z,-1.62
2023-02-26T06:26:32.269Z,-1.61
2023-02-26T06:28:59.974Z,-1.63
2023-02-26T06:31:28.210Z,-1.66
2023-02-26T06:33:55.957Z,-1.67
2023-02-26T06:36:23.964Z,-1.66
2023-02-26T06:38:51.874Z,-1.67
2023-02-26T06:41:19.809Z,-1.66
2023-02-26T06:43:47.452Z,-1.64
2023-02-26T06:46:15.390Z,-1.65
2023-02-26T06:48:43.110Z,-1.65
2023-02-26T06:51:11.050Z,-1.69
2023-02-26T06:53:39.604Z,-1.72
2023-02-26T06:56:07.524Z,-1.75
2023-02-26T06:58:35.750Z,-1.75
2023-02-26T07:01:05.954Z,-1.75
2023-02-26T07:03:33.704Z,-1.78
2023-02-26T07:06:23.587Z,-1.78
2023-02-26T07:08:49.093Z,-1.82
2023-02-26T07:11:16.931Z,-1.78
2023-02-26T07:13:44.663Z,-1.79
2023-02-26T07:16:12.762Z,-1.78
2023-02-26T07:18:40.720Z,-1.78
2023-02-26T07:21:08.782Z,-1.75
2023-02-26T07:23:36.608Z,-1.73
2023-02-26T07:26:04.420Z,-1.74
2023-02-26T07:28:32.165Z,-1.77
2023-02-26T07:31:00.223Z,-1.76
2023-02-26T07:33:29.612Z,-1.77
2023-02-26T07:35:57.634Z,-1.76
2023-02-26T07:38:25.364Z,-1.75
2023-02-26T07:40:56.401Z,-1.77
2023-02-26T07:43:25.327Z,-1.78
2023-02-26T07:45:54.663Z,-1.81
2023-02-26T07:48:22.634Z,-1.83
2023-02-26T07:50:53.438Z,-1.82
2023-02-26T07:53:21.757Z,-1.80
2023-02-26T07:55:49.870Z,-1.77
2023-02-26T07:58:18.798Z,-1.78
2023-02-26T08:00:47.313Z,-1.76
2023-02-26T08:03:16.506Z,-1.74
2023-02-26T08:05:44.211Z,-1.70
2023-02-26T08:08:11.970Z,-1.61
2023-02-26T08:10:42.022Z,-1.50
2023-02-26T08:13:09.982Z,-1.42
2023-02-26T08:15:37.784Z,-1.39
2023-02-26T08:18:05.701Z,-1.38
2023-02-26T08:20:33.397Z,-1.38
2023-02-26T08:23:01.034Z,-1.34
2023-02-26T08:25:28.798Z,-1.29
2023-02-26T08:27:58.960Z,-1.26
2023-02-26T08:30:26.591Z,-1.24
2023-02-26T08:32:54.325Z,-1.14
2023-02-26T08:35:22.058Z,-1.14
2023-02-26T08:37:49.782Z,-0.64
2023-02-26T08:40:17.754Z,-0.63
2023-02-26T08:42:45.598Z,-0.66
2023-02-26T08:45:13.568Z,-0.59
2023-02-26T08:47:56.122Z,-0.67
2023-02-26T08:50:25.953Z,-0.68
2023-02-26T08:52:54.180Z,-0.67
2023-02-26T08:55:22.956Z,-0.72
2023-02-26T08:57:50.710Z,-0.78
2023-02-26T09:00:19.660Z,-0.90
2023-02-26T09:02:47.785Z,-0.93
2023-02-26T09:05:16.385Z,-0.91
2023-02-26T09:07:44.916Z,-0.96
2023-02-26T09:10:13.740Z,-0.94
2023-02-26T09:12:41.969Z,-0.88
2023-02-26T09:15:11.483Z,-0.90
2023-02-26T09:17:39.535Z,-0.82
2023-02-26T09:20:08.316Z,-0.81
2023-02-26T09:22:36.703Z,-0.78
2023-02-26T09:25:05.427Z,-0.86
2023-02-26T09:27:33.534Z,-0.84
2023-02-26T09:30:01.328Z,-0.82
2023-02-26T09:32:29.123Z,-0.84
2023-02-26T09:34:56.961Z,-0.87
2023-02-26T09:37:24.647Z,-0.89
2023-02-26T09:39:54.812Z,-0.87
2023-02-26T09:42:45.972Z,-0.83
2023-02-26T09:45:31.454Z,-0.82
2023-02-26T09:48:02.451Z,-0.80
2023-02-26T09:50:43.672Z,-0.73
2023-02-26T09:53:32.669Z,-0.76
2023-02-26T09:56:05.830Z,-0.75
2023-02-26T09:58:40.051Z,-0.67
2023-02-26T10:01:35.598Z,-0.66
2023-02-26T10:04:22.655Z,-0.54
2023-02-26T10:07:11.952Z,-0.46
2023-02-26T10:10:10.106Z,-0.33
2023-02-26T10:12:41.691Z,-0.24
2023-02-26T10:15:23.896Z,-0.19
2023-02-26T10:18:13.202Z,-0.11
2023-02-26T10:20:53.050Z,-0.04
2023-02-26T10:23:35.034Z,0.06
2023-02-26T10:26:20.535Z,0.02
2023-02-26T10:29:13.123Z,0.03
2023-02-26T10:32:19.064Z,0.04
2023-02-26T10:34:58.196Z,-0.10
2023-02-26T10:37:44.595Z,-0.14
2023-02-26T10:40:36.504Z,-0.12
2023-02-26T10:43:13.295Z,-0.10
2023-02-26T10:45:47.128Z,-0.07
2023-02-26T10:48:43.761Z,-0.06
2023-02-26T10:51:21.634Z,-0.02
2023-02-26T10:53:56.524Z,0.04
2023-02-26T10:56:42.441Z,0.11
2023-02-26T10:59:10.468Z,0.11
2023-02-26T11:01:38.453Z,0.12
2023-02-26T11:04:19.517Z,0.23
2023-02-26T11:06:56.617Z,0.23
2023-02-26T11:09:32.772Z,0.26
2023-02-26T11:12:15.514Z,0.33
2023-02-26T11:14:48.661Z,0.35
2023-02-26T11:17:23.558Z,0.41
2023-02-26T11:19:59.171Z,0.49
2023-02-26T11:22:30.557Z,0.48
2023-02-26T11:24:58.977Z,0.54
2023-02-26T11:27:32.304Z,0.57
2023-02-26T11:30:07.648Z,0.52
2023-02-26T11:32:38.438Z,0.52
2023-02-26T11:35:09.795Z,0.50
2023-02-26T11:37:41.766Z,0.55
2023-02-26T11:40:19.637Z,0.53
2023-02-26T11:43:00.329Z,0.49
2023-02-26T11:45:28.312Z,0.45
2023-02-26T11:48:06.359Z,0.47
2023-02-26T11:50:44.705Z,0.48
2023-02-26T11:53:24.887Z,0.51
2023-02-26T11:56:02.458Z,0.52
2023-02-26T11:58:37.036Z,0.64
2023-02-26T12:01:07.669Z,0.74
2023-02-26T12:03:42.021Z,0.78
2023-02-26T12:06:19.521Z,0.80
2023-02-26T12:08:47.326Z,0.80
2023-02-26T12:11:27.507Z,0.86
2023-02-26T12:14:13.423Z,0.84
2023-02-26T12:17:21.184Z,0.81
2023-02-26T12:19:52.216Z,0.67
2023-02-26T12:22:31.699Z,0.66
2023-02-26T12:25:11.261Z,0.65
2023-02-26T12:27:56.866Z,0.54
2023-02-26T12:30:55.615Z,0.51
2023-02-26T12:33:39.082Z,0.47
2023-02-26T12:36:22.887Z,0.48
2023-02-26T12:39:00.050Z,0.37
2023-02-26T12:41:36.875Z,0.30
2023-02-26T12:44:22.113Z,0.26
2023-02-26T12:47:12.898Z,0.19
2023-02-26T12:50:08.351Z,0.13
2023-02-26T12:53:15.590Z,0.24
2023-02-26T12:56:07.964Z,0.43
2023-02-26T12:59:10.022Z,0.54
2023-02-26T13:01:37.725Z,0.62
2023-02-26T13:04:14.595Z,0.68
2023-02-26T13:06:48.286Z,0.73
2023-02-26T13:09:45.188Z,0.77
2023-02-26T13:12:24.962Z,0.66
2023-02-26T13:15:01.882Z,0.51
2023-02-26T13:17:49.970Z,0.37
2023-02-26T13:20:27.207Z,0.06
2023-02-26T13:23:02.983Z,-0.15
2023-02-26T13:25:50.040Z,-0.32
2023-02-26T13:28:42.373Z,-0.41
2023-02-26T13:31:27.559Z,-0.41
2023-02-26T13:33:58.078Z,-0.35
2023-02-26T13:36:28.835Z,-0.21
2023-02-26T13:39:22.772Z,-0.16
2023-02-26T13:42:05.508Z,-0.12
2023-02-26T13:45:09.780Z,-0.09
2023-02-26T13:47:59.690Z,-0.07
2023-02-26T13:50:45.514Z,-0.06
2023-02-26T13:53:25.597Z,-0.01
2023-02-26T13:55:55.014Z,-0.01
2023-02-26T13:58:25.916Z,0.08
2023-02-26T14:01:27.890Z,0.07
2023-02-26T14:04:26.150Z,0.06
2023-02-26T14:06:55.561Z,0.06
2023-02-26T14:09:23.308Z,0.05
2023-02-26T14:11:58.638Z,0.07
2023-02-26T14:14:36.638Z,0.12
2023-02-26T14:17:04.247Z,0.16
2023-02-26T14:19:44.860Z,0.23
2023-02-26T14:22:35.978Z,0.27
2023-02-26T14:25:20.186Z,0.39
2023-02-26T14:27:49.628Z,0.43
2023-02-26T14:30:28.355Z,0.47
2023-02-26T14:33:11.317Z,0.49
2023-02-26T14:35:46.223Z,0.56
2023-02-26T14:38:22.054Z,0.61
2023-02-26T14:41:26.172Z,0.61
2023-02-26T14:44:08.830Z,0.57
2023-02-26T14:46:37.266Z,0.62
2023-02-26T14:49:06.765Z,0.60
2023-02-26T14:52:06.108Z,0.60
2023-02-26T14:54:58.126Z,0.58
2023-02-26T14:57:46.845Z,0.59
2023-02-26T15:00:38.585Z,0.61
2023-02-26T15:03:18.329Z,0.62
2023-02-26T15:05:52.801Z,0.64
2023-02-26T15:08:36.570Z,0.61
2023-02-26T15:11:36.144Z,0.57
2023-02-26T15:14:44.729Z,0.53
2023-02-26T15:17:34.954Z,0.48
2023-02-26T15:20:11.202Z,0.45
2023-02-26T15:22:41.694Z,0.43
2023-02-26T15:25:33.004Z,0.37
2023-02-26T15:28:02.293Z,0.36
2023-02-26T15:30:33.177Z,0.37
2023-02-26T15:33:04.802Z,0.37
2023-02-26T15:35:36.033Z,0.43
2023-02-26T15:38:05.340Z,0.45
2023-02-26T15:40:36.378Z,0.45
2023-02-26T15:43:06.267Z,0.43
2023-02-26T15:45:38.399Z,0.36
2023-02-26T15:48:10.456Z,0.29
2023-02-26T15:50:43.053Z,0.23
2023-02-26T15:53:18.889Z,0.16
2023-02-26T15:55:58.104Z,0.17
2023-02-26T15:58:54.613Z,0.08
2023-02-26T16:01:24.798Z,0.04
2023-02-26T16:03:57.335Z,-0.02
2023-02-26T16:06:29.516Z,-0.02
2023-02-26T16:08:57.416Z,-0.08
2023-02-26T16:11:27.482Z,-0.09
2023-02-26T16:13:55.369Z,-0.15
2023-02-26T16:16:30.421Z,-0.19
2023-02-26T16:18:58.946Z,-0.24
2023-02-26T16:21:29.882Z,-0.24
2023-02-26T16:23:59.623Z,-0.26
2023-02-26T16:26:36.243Z,-0.26
2023-02-26T16:29:08.232Z,-0.26
2023-02-26T16:31:38.297Z,-0.31
2023-02-26T16:34:24.160Z,-0.31
2023-02-26T16:36:53.102Z,-0.29
2023-02-26T16:39:33.005Z,-0.30
2023-02-26T16:42:22.106Z,-0.29
2023-02-26T16:45:02.785Z,-0.29
2023-02-26T16:47:32.234Z,-0.31
2023-02-26T16:49:59.970Z,-0.33
2023-02-26T16:52:28.155Z,-0.36
2023-02-26T16:55:03.848Z,-0.34
2023-02-26T16:57:43.414Z,-0.36
2023-02-26T17:00:28.821Z,-0.36
2023-02-26T17:03:00.141Z,-0.35
2023-02-26T17:05:32.541Z,-0.34
2023-02-26T17:08:10.788Z,-0.36
2023-02-26T17:10:55.256Z,-0.37
2023-02-26T17:13:30.964Z,-0.32
2023-02-26T17:16:08.628Z,-0.29
2023-02-26T17:18:36.666Z,-0.29
2023-02-26T17:21:06.171Z,-0.25
2023-02-26T17:23:38.505Z,-0.26
2023-02-26T17:26:07.462Z,-0.24
2023-02-26T17:28:41.604Z,-0.23
2023-02-26T17:31:09.761Z,-0.20
2023-02-26T17:33:39.238Z,-0.20
2023-02-26T17:36:08.502Z,-0.20
2023-02-26T17:38:36.355Z,-0.15
2023-02-26T17:41:04.133Z,-0.11
2023-02-26T17:43:31.970Z,-0.09
2023-02-26T17:45:59.888Z,-0.08
2023-02-26T17:48:27.901Z,-0.06
2023-02-26T17:50:57.506Z,-0.06
2023-02-26T17:53:34.488Z,-0.09
2023-02-26T17:56:02.397Z,-0.11
2023-02-26T17:58:34.803Z,-0.16
2023-02-26T18:01:05.134Z,-0.20
2023-02-26T18:03:33.039Z,-0.21
2023-02-26T18:06:00.942Z,-0.24
2023-02-26T18:08:31.636Z,-0.28
2023-02-26T18:11:00.615Z,-0.31
2023-02-26T18:13:29.293Z,-0.31
2023-02-26T18:15:59.192Z,-0.35
2023-02-26T18:18:27.714Z,-0.36
2023-02-26T18:20:56.479Z,-0.37
2023-02-26T18:23:24.559Z,-0.41
2023-02-26T18:25:55.169Z,-0.46
2023-02-26T18:28:26.144Z,-0.49
2023-02-26T18:30:55.322Z,-0.59
2023-02-26T18:33:24.393Z,-0.60
2023-02-26T18:35:57.946Z,-0.62
2023-02-26T18:38:28.152Z,-0.67
2023-02-26T18:40:56.121Z,-0.70
2023-02-26T18:43:23.927Z,-0.76
2023-02-26T18:45:53.493Z,-0.77
2023-02-26T18:48:22.523Z,-0.81
2023-02-26T18:50:50.292Z,-0.87
2023-02-26T18:53:24.239Z,-0.85
2023-02-26T18:55:54.085Z,-0.89
2023-02-26T18:58:22.947Z,-0.88
2023-02-26T19:00:50.807Z,-0.90
2023-02-26T19:03:18.690Z,-0.92
2023-02-26T19:05:46.699Z,-0.94
2023-02-26T19:08:14.534Z,-0.94
2023-02-26T19:10:42.211Z,-0.96
2023-02-26T19:13:09.950Z,-0.96
2023-02-26T19:15:37.629Z,-0.98
2023-02-26T19:18:05.321Z,-0.97
2023-02-26T19:20:33.061Z,-0.97
2023-02-26T19:23:02.076Z,-0.96
2023-02-26T19:25:31.983Z,-0.98
2023-02-26T19:27:59.901Z,-0.98
2023-02-26T19:30:27.741Z,-1.02
2023-02-26T19:32:56.158Z,-1.03
2023-02-26T19:35:23.916Z,-1.02
2023-02-26T19:37:51.678Z,-1.02
2023-02-26T19:40:20.812Z,-1.06
2023-02-26T19:42:49.184Z,-1.03
2023-02-26T19:45:17.356Z,-1.03
2023-02-26T19:47:45.206Z,-1.03
2023-02-26T19:50:15.148Z,-1.03
2023-02-26T19:52:42.937Z,-1.05
2023-02-26T19:55:11.310Z,-1.04
2023-02-26T19:57:38.953Z,-1.02
2023-02-26T20:00:08.132Z,-1.02
2023-02-26T20:02:35.947Z,-1.03
2023-02-26T20:05:06.079Z,-1.02
2023-02-26T20:07:33.857Z,-1.02
2023-02-26T20:10:05.028Z,-1.02
2023-02-26T20:12:32.841Z,-1.01
2023-02-26T20:15:00.595Z,-0.96
2023-02-26T20:17:28.234Z,-0.95
2023-02-26T20:19:56.092Z,-0.98
2023-02-26T20:22:25.683Z,-1.01
2023-02-26T20:24:53.823Z,-1.04
2023-02-26T20:27:21.740Z,-1.07
2023-02-26T20:29:50.763Z,-1.11
2023-02-26T20:32:18.970Z,-1.14
2023-02-26T20:34:46.899Z,-1.14
2023-02-26T20:37:14.732Z,-1.18
2023-02-26T20:39:42.476Z,-1.16
2023-02-26T20:42:10.374Z,-1.16
2023-02-26T20:44:38.047Z,-1.17
2023-02-26T20:47:06.218Z,-1.16
2023-02-26T20:49:33.935Z,-1.17
2023-02-26T20:52:01.873Z,-1.16
2023-02-26T20:54:29.660Z,-1.13
2023-02-26T20:56:57.592Z,-1.13
2023-02-26T20:59:25.375Z,-1.14
2023-02-26T21:01:54.531Z,-1.13
2023-02-26T21:04:22.372Z,-1.14
2023-02-26T21:06:50.568Z,-1.13
2023-02-26T21:09:18.260Z,-1.13
2023-02-26T21:11:45.959Z,-1.14
2023-02-26T21:14:13.714Z,-1.13
2023-02-26T21:16:42.442Z,-1.12
2023-02-26T21:19:10.335Z,-1.12
2023-02-26T21:21:38.053Z,-1.12
2023-02-26T21:24:06.135Z,-1.09
2023-02-26T21:26:35.309Z,-1.09
2023-02-26T21:29:03.921Z,-1.10
2023-02-26T21:31:32.216Z,-1.11
2023-02-26T21:34:08.260Z,-1.14
2023-02-26T21:36:45.015Z,-1.17
2023-02-26T21:39:12.781Z,-1.16
2023-02-26T21:41:40.603Z,-1.17
2023-02-26T21:44:08.568Z,-1.19
2023-02-26T21:46:36.528Z,-1.18
2023-02-26T21:49:04.338Z,-1.18
2023-02-26T21:51:32.103Z,-1.18
2023-02-26T21:54:00.026Z,-1.16
2023-02-26T21:56:27.802Z,-1.17
2023-02-26T21:58:55.800Z,-1.17
2023-02-26T22:01:23.567Z,-1.14
2023-02-26T22:03:51.362Z,-1.15
2023-02-26T22:06:19.155Z,-1.16
2023-02-26T22:08:46.893Z,-1.16
2023-02-26T22:11:14.730Z,-1.11
2023-02-26T22:13:42.614Z,-1.09
2023-02-26T22:16:10.727Z,-1.10
2023-02-26T22:18:38.742Z,-1.12
2023-02-26T22:21:06.665Z,-1.09
2023-02-26T22:23:34.362Z,-1.10
2023-02-26T22:26:02.651Z,-1.08
2023-02-26T22:28:30.762Z,-1.08
2023-02-26T22:30:58.569Z,-1.11
2023-02-26T22:33:27.264Z,-1.10
2023-02-26T22:35:59.232Z,-1.15
2023-02-26T22:38:27.287Z,-1.11
2023-02-26T22:40:55.414Z,-1.12
2023-02-26T22:43:23.757Z,-1.14
2023-02-26T22:45:51.632Z,-1.13
2023-02-26T22:48:19.441Z,-1.12
2023-02-26T22:50:47.156Z,-1.13
2023-02-26T22:53:14.800Z,-1.13
2023-02-26T22:55:42.905Z,-1.10
2023-02-26T22:58:10.849Z,-1.11
2023-02-26T23:00:38.685Z,-1.10
2023-02-26T23:03:06.473Z,-1.16
2023-02-26T23:05:34.331Z,-1.15
2023-02-26T23:08:02.178Z,-1.16
2023-02-26T23:10:30.029Z,-1.17
2023-02-26T23:13:01.251Z,-1.19
2023-02-26T23:15:29.256Z,-1.20
2023-02-26T23:17:57.095Z,-1.20
2023-02-26T23:20:24.781Z,-1.21
2023-02-26T23:22:52.481Z,-1.19
2023-02-26T23:25:20.299Z,-1.19
2023-02-26T23:27:48.209Z,-1.20
2023-02-26T23:30:15.946Z,-1.22
2023-02-26T23:32:43.881Z,-1.22
2023-02-26T23:35:11.780Z,-1.21
2023-02-26T23:37:39.661Z,-1.23
2023-02-26T23:40:08.861Z,-1.22
2023-02-26T23:42:36.707Z,-1.24
2023-02-26T23:45:04.705Z,-1.23
2023-02-26T23:47:32.417Z,-1.23
2023-02-26T23:50:00.188Z,-1.25
2023-02-26T23:52:27.912Z,-1.24
2023-02-26T23:54:55.848Z,-1.24
2023-02-26T23:57:23.885Z,-1.24
2023-02-26T23:59:51.801Z,-1.24
